Time;durP1;ratioP1;P1;durP2;ratioP2;P2;SDS_P1;SDS_P2;PMS_P1;PMS_P2;Temp;Humidity;BMP_temperature;BMP_pressure;BME280_temperature;BME280_humidity;BME280_pressure;Samples;Min_cycle;Max_cycle;Signal;HPM_P1;HPM_P2
2021/06/29 00:00:59;;;;;;;;;4.00;4.00;;;;;16.63;70.82;100940.84;5081290;28;45294;-79
2021/06/29 00:03:25;;;;;;;;;2.00;2.00;;;;;16.60;70.50;100937.75;5079810;27;45363;-79
2021/06/29 00:05:50;;;;;;;;;3.00;2.33;;;;;16.53;70.87;100929.72;5076348;28;45427;-79
2021/06/29 00:08:16;;;;;;;;;2.00;2.00;;;;;16.45;70.91;100930.75;5060823;28;45350;-79
2021/06/29 00:10:42;;;;;;;;;4.00;3.33;;;;;16.49;71.13;100940.03;5061055;28;46191;-79
2021/06/29 00:13:08;;;;;;;;;4.00;3.00;;;;;16.46;71.38;100926.22;5061056;28;45360;-79
2021/06/29 00:15:34;;;;;;;;;2.00;2.00;;;;;16.46;71.53;100926.22;5061056;28;45227;-80
2021/06/29 00:18:00;;;;;;;;;2.00;2.00;;;;;16.43;71.20;100926.66;5060080;28;45288;-82
2021/06/29 00:20:25;;;;;;;;;2.00;2.00;;;;;16.37;71.12;100925.63;5060033;28;46227;-82
2021/06/29 00:22:51;;;;;;;;;2.00;2.00;;;;;16.37;71.53;100923.75;5075125;28;45655;-82
2021/06/29 00:25:18;;;;;;;;;1.67;1.67;;;;;16.40;71.50;100927.88;5060320;28;45330;-82
2021/06/29 00:27:44;;;;;;;;;3.33;3.00;;;;;16.40;71.92;100922.50;5060988;28;45355;-80
2021/06/29 00:30:10;;;;;;;;;1.33;1.33;;;;;16.38;71.31;100921.91;5077985;27;46773;-79
2021/06/29 00:32:36;;;;;;;;;3.33;3.33;;;;;16.35;71.75;100925.00;5102090;27;45335;-80
2021/06/29 00:35:02;;;;;;;;;2.33;2.33;;;;;16.34;71.95;100920.69;5102689;27;45329;-80
2021/06/29 00:37:27;;;;;;;;;1.67;1.67;;;;;16.30;71.40;100914.06;5100132;27;46771;-79
2021/06/29 00:39:53;;;;;;;;;2.00;2.00;;;;;16.30;71.38;100908.69;5101911;27;45280;-80
2021/06/29 00:42:18;;;;;;;;;1.00;1.00;;;;;16.26;71.96;100905.63;5101974;27;45230;-80
2021/06/29 00:44:47;;;;;;;;;2.67;2.67;;;;;16.26;71.71;100913.66;5102280;27;45263;-82
2021/06/29 00:47:13;;;;;;;;;2.00;1.00;;;;;16.24;72.03;100908.50;5100691;27;45562;-83
2021/06/29 00:49:40;;;;;;;;;3.67;3.00;;;;;16.20;71.73;100909.97;5099001;27;48259;-83
2021/06/29 00:52:10;;;;;;;;;2.33;2.33;;;;;16.15;72.11;100901.72;5100037;27;45339;-83
2021/06/29 00:54:36;;;;;;;;;2.00;2.00;;;;;16.12;72.26;100896.75;5100775;27;45335;-82
2021/06/29 00:57:02;;;;;;;;;3.33;2.67;;;;;16.16;72.09;100903.34;5102300;27;45498;-80
2021/06/29 00:59:27;;;;;;;;;2.33;2.33;;;;;16.14;71.94;100900.06;5102748;27;46104;-79
2021/06/29 01:01:53;;;;;;;;;3.67;3.67;;;;;16.11;72.54;100903.16;5102354;27;45370;-80
2021/06/29 01:04:18;;;;;;;;;2.67;2.33;;;;;16.09;72.28;100899.84;5102541;27;45815;-80
2021/06/29 01:06:44;;;;;;;;;2.00;2.00;;;;;16.09;72.37;100900.69;5101968;27;45326;-80
2021/06/29 01:09:09;;;;;;;;;1.67;1.67;;;;;16.05;72.09;100898.63;5102220;27;46023;-80
2021/06/29 01:11:35;;;;;;;;;2.67;2.00;;;;;16.03;72.56;100891.63;5102367;27;45257;-80
2021/06/29 01:14:14;;;;;;;;;4.00;4.00;;;;;15.99;72.30;100885.03;5100560;27;45394;-82
2021/06/29 01:16:40;;;;;;;;;1.67;1.67;;;;;16.02;72.43;100889.94;5099898;27;45509;-82
2021/06/29 01:19:06;;;;;;;;;0.00;0.00;;;;;15.98;71.95;100886.03;5100646;27;45365;-83
2021/06/29 01:21:39;;;;;;;;;2.00;2.00;;;;;15.96;72.25;100882.75;5100322;27;45273;-82
2021/06/29 01:24:11;;;;;;;;;2.67;2.00;;;;;15.98;72.46;100896.75;5100426;27;45309;-82
2021/06/29 01:26:41;;;;;;;;;2.33;2.33;;;;;15.92;72.56;100894.88;5098591;27;46385;-81
2021/06/29 01:29:07;;;;;;;;;2.00;2.00;;;;;15.87;72.85;100894.69;5100394;27;45512;-80
2021/06/29 01:31:34;;;;;;;;;2.67;2.67;;;;;15.83;72.41;100883.53;5080786;27;45311;-79
2021/06/29 01:34:00;;;;;;;;;3.67;3.67;;;;;15.76;73.03;100885.41;5080929;27;45357;-79
2021/06/29 01:36:33;;;;;;;;;2.00;2.00;;;;;15.76;72.52;100888.06;5082916;27;45388;-80
2021/06/29 01:38:59;;;;;;;;;1.67;1.67;;;;;15.72;72.58;100879.63;5081481;28;48241;-80
2021/06/29 01:41:25;;;;;;;;;3.00;2.00;;;;;15.67;72.80;100874.06;5084079;28;45315;-79
2021/06/29 01:43:57;;;;;;;;;2.00;2.00;;;;;15.65;73.45;100874.25;5084106;27;45331;-82
2021/06/29 01:46:25;;;;;;;;;2.00;2.00;;;;;15.61;73.13;100874.88;5083281;27;45444;-82
2021/06/29 01:48:52;;;;;;;;;2.00;2.00;;;;;15.60;73.05;100868.72;5073313;27;46107;-82
2021/06/29 01:51:19;;;;;;;;;4.00;3.67;;;;;15.62;73.04;100871.16;5062509;28;45655;-82
2021/06/29 01:53:47;;;;;;;;;4.00;4.00;;;;;15.58;72.69;100873.44;5061437;28;45421;-82
2021/06/29 01:56:15;;;;;;;;;4.00;3.00;;;;;15.59;72.99;100882.31;5063770;28;45222;-79
2021/06/29 01:58:54;;;;;;;;;1.00;1.00;;;;;15.57;73.16;100873.63;5063814;28;45331;-79
2021/06/29 02:01:21;;;;;;;;;2.33;1.67;;;;;15.53;72.81;100876.72;5065240;28;45227;-79
2021/06/29 02:03:46;;;;;;;;;3.00;3.00;;;;;15.47;73.08;100872.19;5063551;28;45330;-79
2021/06/29 02:06:14;;;;;;;;;4.00;3.00;;;;;15.48;73.31;100876.50;5079594;28;46072;-79
2021/06/29 02:08:39;;;;;;;;;4.33;2.67;;;;;15.43;73.29;100872.78;5063866;28;46178;-79
2021/06/29 02:11:04;;;;;;;;;2.00;2.00;;;;;15.40;73.17;100874.03;5061544;28;45326;-79
2021/06/29 02:13:30;;;;;;;;;5.00;3.33;;;;;15.35;73.39;100871.13;5062047;28;45443;-82
2021/06/29 02:15:56;;;;;;;;;2.00;2.00;;;;;15.43;72.96;100878.13;5062019;28;45543;-82
2021/06/29 02:18:22;;;;;;;;;2.67;2.67;;;;;15.45;73.21;100878.78;5060711;28;46987;-82
2021/06/29 02:20:49;;;;;;;;;3.67;3.67;;;;;15.41;73.43;100875.66;5062207;28;45447;-82
2021/06/29 02:23:14;;;;;;;;;5.00;4.00;;;;;15.35;73.12;100871.13;5061805;28;45287;-82
2021/06/29 02:25:39;;;;;;;;;4.00;4.00;;;;;15.36;73.73;100870.91;5062041;28;45378;-79
2021/06/29 02:28:05;;;;;;;;;3.67;3.67;;;;;15.31;73.43;100860.00;5062290;28;45429;-79
2021/06/29 02:30:30;;;;;;;;;3.67;3.67;;;;;15.36;73.53;100873.59;5082370;27;45451;-79
2021/06/29 02:32:55;;;;;;;;;4.33;4.33;;;;;15.30;73.42;100862.88;5101771;27;45595;-79
2021/06/29 02:35:21;;;;;;;;;4.00;4.00;;;;;15.31;73.82;100867.19;5102720;27;45561;-79
2021/06/29 02:37:46;;;;;;;;;4.00;4.00;;;;;15.27;73.79;100856.09;5102651;27;45347;-79
2021/06/29 02:40:12;;;;;;;;;4.67;3.67;;;;;15.29;73.51;100856.69;5102713;27;45262;-79
2021/06/29 02:42:38;;;;;;;;;2.67;2.67;;;;;15.33;73.76;100867.84;5101194;27;45245;-79
2021/06/29 02:45:06;;;;;;;;;3.33;3.00;;;;;15.31;73.65;100865.34;5100965;27;46311;-82
2021/06/29 02:47:34;;;;;;;;;4.00;4.00;;;;;15.27;73.84;100854.22;5102284;27;45980;-81
2021/06/29 02:49:59;;;;;;;;;2.67;2.67;;;;;15.31;73.75;100856.50;5102240;27;45346;-82
2021/06/29 02:52:25;;;;;;;;;3.67;3.33;;;;;15.29;73.86;100855.88;5101877;27;45330;-82
2021/06/29 02:54:50;;;;;;;;;4.00;4.00;;;;;15.25;73.55;100850.94;5102334;27;45266;-79
2021/06/29 02:57:16;;;;;;;;;2.33;2.33;;;;;15.25;73.59;100853.59;5100961;27;47269;-79
2021/06/29 02:59:41;;;;;;;;;3.33;3.33;;;;;15.18;73.47;100846.59;5101068;27;45439;-80
2021/06/29 03:02:06;;;;;;;;;3.00;3.00;;;;;15.18;73.29;100852.78;5102816;27;45274;-79
2021/06/29 03:04:31;;;;;;;;;2.67;2.33;;;;;15.21;73.12;100857.72;5102053;27;45538;-79
2021/06/29 03:06:57;;;;;;;;;4.00;4.00;;;;;15.16;73.30;100841.44;5100493;27;47985;-79
2021/06/29 03:09:22;;;;;;;;;4.00;3.00;;;;;15.17;73.75;100844.94;5102057;27;45252;-79
2021/06/29 03:11:48;;;;;;;;;2.00;2.00;;;;;15.09;73.04;100844.06;5102572;27;45623;-81
2021/06/29 03:14:13;;;;;;;;;3.00;3.00;;;;;15.07;73.46;100848.00;5101946;27;45450;-82
2021/06/29 03:16:38;;;;;;;;;4.00;2.00;;;;;15.03;73.26;100839.56;5101566;27;45553;-82
2021/06/29 03:19:04;;;;;;;;;2.00;1.00;;;;;14.95;73.59;100834.38;5101802;27;45310;-82
2021/06/29 03:21:29;;;;;;;;;6.33;3.00;;;;;14.95;73.44;100831.69;5101710;27;45293;-82
2021/06/29 03:23:55;;;;;;;;;3.00;3.00;;;;;14.93;73.71;100831.88;5101906;27;45345;-79
2021/06/29 03:26:20;;;;;;;;;4.33;3.33;;;;;14.89;73.54;100834.16;5101762;27;45822;-79
2021/06/29 03:28:46;;;;;;;;;2.67;2.67;;;;;14.85;73.95;100819.50;5101921;27;45315;-79
2021/06/29 03:31:11;;;;;;;;;2.67;2.67;;;;;14.83;73.66;100820.75;5085645;27;45268;-79
2021/06/29 03:33:37;;;;;;;;;4.00;3.00;;;;;14.80;73.86;100813.97;5081481;27;45306;-79
2021/06/29 03:36:02;;;;;;;;;3.00;3.00;;;;;14.86;73.76;100820.34;5079936;28;46053;-79
2021/06/29 03:38:27;;;;;;;;;4.00;3.00;;;;;14.83;73.99;100813.56;5081368;28;45348;-80
2021/06/29 03:40:53;;;;;;;;;4.00;3.00;;;;;14.82;73.95;100813.75;5097117;27;45349;-80
2021/06/29 03:43:18;;;;;;;;;3.00;3.00;;;;;14.80;74.08;100803.25;5081344;27;45456;-82
2021/06/29 03:45:44;;;;;;;;;1.33;1.33;;;;;14.83;74.36;100810.88;5080996;27;46017;-82
2021/06/29 03:48:09;;;;;;;;;1.00;1.00;;;;;14.85;74.22;100808.81;5081101;27;45309;-82
2021/06/29 03:50:35;;;;;;;;;1.00;1.00;;;;;14.86;74.52;100804.28;5080944;27;45318;-82
2021/06/29 03:53:01;;;;;;;;;4.00;3.33;;;;;14.93;74.48;100817.72;5080570;27;45353;-83
2021/06/29 03:55:27;;;;;;;;;7.00;4.00;;;;;14.97;74.09;100810.91;5080903;27;45241;-80
2021/06/29 03:57:53;;;;;;;;;2.33;2.33;;;;;15.00;73.86;100810.50;5080741;27;45338;-80
2021/06/29 04:00:18;;;;;;;;;2.50;2.50;;;;;15.02;73.83;100805.75;5081127;27;45677;-80
2021/06/29 04:02:44;;;;;;;;;5.67;3.00;;;;;14.93;73.52;100783.72;5079619;28;45989;-80
2021/06/29 04:05:09;;;;;;;;;2.00;2.00;;;;;15.07;74.30;100807.84;5081065;27;46182;-80
2021/06/29 04:07:35;;;;;;;;;3.00;3.00;;;;;15.09;73.87;100811.16;5080850;28;45318;-80
2021/06/29 04:10:03;;;;;;;;;4.33;3.67;;;;;15.12;74.13;100813.44;5081127;27;45306;-79
2021/06/29 04:12:28;;;;;;;;;2.00;2.00;;;;;15.18;74.37;100809.09;5079363;28;46868;-82
2021/06/29 04:14:54;;;;;;;;;2.33;2.33;;;;;15.23;74.23;100811.97;5080217;27;45463;-82
2021/06/29 04:17:19;;;;;;;;;4.00;4.00;;;;;15.25;74.53;100804.59;5079294;28;45252;-81
2021/06/29 04:19:45;;;;;;;;;3.00;3.00;;;;;15.33;74.43;100815.13;5080590;27;45264;-82
2021/06/29 04:22:10;;;;;;;;;4.00;3.00;;;;;15.36;74.25;100821.91;5078812;28;47123;-82
2021/06/29 04:24:36;;;;;;;;;6.00;4.00;;;;;15.36;73.92;100816.56;5080512;27;46256;-80
2021/06/29 04:27:03;;;;;;;;;4.67;4.67;;;;;15.38;74.61;100811.78;5081021;28;45289;-79
2021/06/29 04:29:30;;;;;;;;;3.67;3.67;;;;;15.41;74.40;100814.06;5085562;27;45325;-79
2021/06/29 04:31:55;;;;;;;;;3.00;3.00;;;;;15.45;73.93;100801.94;5101137;27;45263;-80
2021/06/29 04:34:21;;;;;;;;;4.00;4.00;;;;;15.50;73.95;100804.81;5101126;27;45432;-80
2021/06/29 04:36:46;;;;;;;;;2.67;2.67;;;;;15.50;74.49;100804.81;5100810;27;45278;-79
2021/06/29 04:39:12;;;;;;;;;3.00;2.00;;;;;15.51;74.30;100813.69;5099722;27;45458;-80
2021/06/29 04:41:38;;;;;;;;;2.67;2.67;;;;;15.50;74.55;100812.00;5100835;27;45336;-82
2021/06/29 04:44:04;;;;;;;;;2.33;2.33;;;;;15.52;74.28;100809.97;5100536;27;45483;-82
2021/06/29 04:46:30;;;;;;;;;4.33;3.00;;;;;15.46;74.07;100797.38;5099096;27;45931;-82
2021/06/29 04:48:56;;;;;;;;;4.33;4.33;;;;;15.51;74.63;100803.78;5099341;27;45261;-82
2021/06/29 04:51:21;;;;;;;;;4.00;4.00;;;;;15.55;74.92;100798.00;5090827;27;45494;-82
2021/06/29 04:53:47;;;;;;;;;3.00;3.00;;;;;15.57;74.96;100796.78;5065685;28;45454;-80
2021/06/29 04:56:18;;;;;;;;;3.33;3.33;;;;;15.61;74.43;100800.69;5069328;27;45382;-80
2021/06/29 04:58:44;;;;;;;;;4.00;3.33;;;;;15.65;74.55;100809.13;5070307;28;45263;-80
2021/06/29 05:01:10;;;;;;;;;3.00;3.00;;;;;15.68;74.82;100803.34;5068373;28;45468;-81
2021/06/29 05:03:36;;;;;;;;;4.00;3.00;;;;;15.72;74.28;100803.78;5065948;27;45329;-79
2021/06/29 05:06:01;;;;;;;;;4.67;4.00;;;;;15.74;73.84;100805.22;5060111;28;45295;-80
2021/06/29 05:08:27;;;;;;;;;4.33;4.00;;;;;15.75;73.86;100808.72;5059402;28;45829;-79
2021/06/29 05:10:52;;;;;;;;;2.33;2.33;;;;;15.77;73.83;100815.53;5063365;28;46011;-78
2021/06/29 05:13:18;;;;;;;;;3.33;3.33;;;;;15.82;74.38;100811.38;5065587;28;45551;-81
2021/06/29 05:15:44;;;;;;;;;5.33;4.00;;;;;15.89;73.96;100822.91;5063224;28;45388;-81
2021/06/29 05:18:09;;;;;;;;;3.33;3.00;;;;;15.83;73.78;100811.19;5063802;28;45236;-81
2021/06/29 05:20:34;;;;;;;;;4.00;3.67;;;;;15.97;73.36;100824.59;5063456;28;45339;-80
2021/06/29 05:23:00;;;;;;;;;4.00;4.00;;;;;16.00;73.82;100829.53;5064770;28;46110;-79
2021/06/29 05:25:25;;;;;;;;;3.33;3.00;;;;;16.03;73.69;100832.66;5062887;28;45326;-81
2021/06/29 05:27:50;;;;;;;;;5.00;4.00;;;;;16.12;73.75;100837.78;5063531;28;45299;-78
2021/06/29 05:30:16;;;;;;;;;4.00;4.00;;;;;16.18;73.51;100841.47;5079832;27;45484;-80
2021/06/29 05:32:42;;;;;;;;;4.00;4.00;;;;;16.17;73.35;100835.31;5104103;27;46088;-82
2021/06/29 05:35:08;;;;;;;;;2.33;2.33;;;;;16.27;73.28;100838.38;5103760;27;45321;-80
2021/06/29 05:37:33;;;;;;;;;6.00;4.00;;;;;16.37;74.03;100831.75;5103981;27;45283;-80
2021/06/29 05:39:59;;;;;;;;;4.33;4.00;;;;;16.48;73.38;100841.00;5104729;27;45193;-80
2021/06/29 05:42:25;;;;;;;;;4.00;4.00;;;;;16.52;72.98;100834.16;5104054;27;47135;-80
2021/06/29 05:44:50;;;;;;;;;4.33;4.33;;;;;16.55;72.43;100839.09;5109331;27;45213;-80
2021/06/29 05:47:20;;;;;;;;;3.33;3.33;;;;;16.60;72.93;100847.34;5120993;27;45242;-80
2021/06/29 05:49:46;;;;;;;;;2.00;2.00;;;;;16.59;72.70;100842.19;5105807;27;45631;-81
2021/06/29 05:52:12;;;;;;;;;6.33;3.67;;;;;16.64;73.33;100842.41;5105002;27;45496;-81
2021/06/29 05:54:37;;;;;;;;;4.00;4.00;;;;;16.71;73.19;100853.09;5106288;27;45321;-79
2021/06/29 05:57:03;;;;;;;;;3.33;3.33;;;;;16.74;73.31;100856.19;5107315;27;45276;-79
2021/06/29 05:59:29;;;;;;;;;4.00;4.00;;;;;16.76;72.86;100848.72;5105669;27;45424;-79
2021/06/29 06:01:55;;;;;;;;;4.00;4.00;;;;;16.84;72.44;100855.72;5107169;27;45311;-79
2021/06/29 06:04:20;;;;;;;;;3.67;3.67;;;;;16.83;72.55;100850.56;5105476;27;45240;-79
2021/06/29 06:06:46;;;;;;;;;5.00;4.00;;;;;16.85;72.66;100859.25;5103664;27;45192;-79
2021/06/29 06:09:11;;;;;;;;;3.00;3.00;;;;;16.86;72.00;100855.50;5105074;27;45278;-81
2021/06/29 06:11:36;;;;;;;;;7.00;5.00;;;;;16.87;72.51;100854.47;5103402;27;45309;-82
2021/06/29 06:14:02;;;;;;;;;5.00;4.33;;;;;16.94;72.59;100865.19;5103281;27;45624;-82
2021/06/29 06:16:28;;;;;;;;;4.00;4.00;;;;;16.91;72.80;100858.34;5102859;27;45317;-82
2021/06/29 06:18:53;;;;;;;;;4.00;4.00;;;;;16.95;72.71;100861.44;5102998;27;45305;-82
2021/06/29 06:21:18;;;;;;;;;4.00;4.00;;;;;16.98;72.56;100858.34;5100726;27;47066;-82
2021/06/29 06:23:44;;;;;;;;;3.67;3.67;;;;;16.99;73.03;100850.06;5106949;27;45342;-78
2021/06/29 06:26:09;;;;;;;;;4.33;4.00;;;;;16.99;72.25;100847.38;5104383;27;45287;-80
2021/06/29 06:28:34;;;;;;;;;4.00;3.33;;;;;17.07;72.51;100858.94;5102708;27;45339;-81
2021/06/29 06:31:00;;;;;;;;;5.67;5.67;;;;;17.11;72.99;100852.09;5086770;27;48217;-82
2021/06/29 06:33:25;;;;;;;;;3.33;3.33;;;;;17.14;72.98;100854.34;5082172;27;45299;-82
2021/06/29 06:35:51;;;;;;;;;3.00;3.00;;;;;17.18;72.45;100847.50;5082230;27;45268;-82
2021/06/29 06:38:16;;;;;;;;;4.67;3.00;;;;;17.21;72.71;100855.13;5081823;27;45577;-82
2021/06/29 06:40:42;;;;;;;;;3.67;3.67;;;;;17.21;73.17;100849.75;5082018;27;45373;-82
2021/06/29 06:43:07;;;;;;;;;4.00;4.00;;;;;17.24;72.83;100845.84;5083296;27;45259;-81
2021/06/29 06:45:33;;;;;;;;;4.67;4.67;;;;;17.35;73.01;100857.75;5081096;28;45516;-75
2021/06/29 06:47:58;;;;;;;;;4.33;4.00;;;;;17.40;73.50;100860.59;5080627;28;45967;-77
2021/06/29 06:50:24;;;;;;;;;4.67;4.67;;;;;17.45;73.36;100865.34;5080472;28;47643;-79
2021/06/29 06:52:50;;;;;;;;;4.67;4.67;;;;;17.50;73.13;100866.31;5080072;28;45978;-82
2021/06/29 06:55:19;;;;;;;;;4.00;4.00;;;;;17.48;73.15;100868.41;5080663;28;45314;-79
2021/06/29 06:57:44;;;;;;;;;5.67;3.67;;;;;17.49;72.78;100866.53;5077735;27;46033;-79
2021/06/29 07:00:11;;;;;;;;;4.00;4.00;;;;;17.47;73.26;100864.06;5069976;28;45500;-79
2021/06/29 07:02:37;;;;;;;;;4.00;4.00;;;;;17.61;73.82;100882.78;5081717;28;45290;-78
2021/06/29 07:05:05;;;;;;;;;5.67;5.67;;;;;17.62;72.72;100871.81;5081881;27;45287;-76
2021/06/29 07:07:30;;;;;;;;;3.00;3.00;;;;;17.60;72.23;100881.94;5081317;27;45437;-76
2021/06/29 07:09:55;;;;;;;;;4.67;4.00;;;;;17.62;73.30;100874.50;5081586;27;45338;-78
2021/06/29 07:12:21;;;;;;;;;5.67;5.00;;;;;17.65;72.24;100875.94;5081123;27;45144;-82
2021/06/29 07:14:46;;;;;;;;;4.33;4.00;;;;;17.61;72.69;100875.56;5081638;27;45268;-80
2021/06/29 07:17:12;;;;;;;;;4.00;4.00;;;;;17.64;73.38;100885.03;5081592;27;45230;-79
2021/06/29 07:19:37;;;;;;;;;6.33;6.33;;;;;17.63;72.78;100889.56;5081875;27;45912;-79
2021/06/29 07:22:02;;;;;;;;;8.00;7.67;;;;;17.64;72.97;100885.03;5081240;27;45252;-79
2021/06/29 07:24:28;;;;;;;;;5.00;4.00;;;;;17.65;73.46;100879.44;5081412;27;45237;-76
2021/06/29 07:26:53;;;;;;;;;6.00;6.00;;;;;17.67;73.33;100882.75;5080067;28;45966;-78
2021/06/29 07:29:19;;;;;;;;;8.00;6.00;;;;;17.67;73.81;100874.69;5081377;27;46199;-78
2021/06/29 07:31:44;;;;;;;;;4.67;4.67;;;;;17.73;74.12;100880.22;5100470;27;45375;-77
2021/06/29 07:34:09;;;;;;;;;6.00;6.00;;;;;17.77;73.72;100884.94;5101856;27;45322;-77
2021/06/29 07:36:35;;;;;;;;;5.33;5.33;;;;;17.82;73.85;100872.69;5103874;27;45448;-82
2021/06/29 07:39:00;;;;;;;;;5.33;4.00;;;;;17.88;74.02;100878.03;5081515;27;45705;-81
2021/06/29 07:41:25;;;;;;;;;5.33;4.67;;;;;17.91;73.47;100879.44;5059218;28;45395;-81
2021/06/29 07:43:52;;;;;;;;;4.67;4.00;;;;;17.90;73.89;100875.13;5060965;28;45282;-83
2021/06/29 07:46:17;;;;;;;;;4.00;4.00;;;;;17.92;73.52;100881.91;5065475;28;45520;-83
2021/06/29 07:48:42;;;;;;;;;8.67;6.33;;;;;18.01;73.95;100884.31;5080957;27;45990;-81
2021/06/29 07:51:09;;;;;;;;;4.33;4.33;;;;;18.07;72.85;100893.38;5077446;27;45300;-85
2021/06/29 07:53:35;;;;;;;;;5.00;5.00;;;;;18.08;73.50;100884.28;5060851;28;45298;-83
2021/06/29 07:56:01;;;;;;;;;5.00;5.00;;;;;18.12;73.81;100886.31;5062901;28;45313;-82
2021/06/29 07:58:28;;;;;;;;;5.33;5.33;;;;;18.22;73.39;100877.75;5068682;27;45313;-82
2021/06/29 08:00:53;;;;;;;;;3.00;3.00;;;;;18.32;73.12;100879.09;5074802;27;45435;-81
2021/06/29 08:03:19;;;;;;;;;6.00;5.00;;;;;18.39;73.44;100890.63;5079713;28;45386;-81
2021/06/29 08:05:44;;;;;;;;;3.67;3.67;;;;;18.42;73.26;100884.78;5081430;27;45366;-80
2021/06/29 08:08:09;;;;;;;;;7.33;5.00;;;;;18.41;73.13;100886.66;5080947;28;47666;-79
2021/06/29 08:10:35;;;;;;;;;6.00;5.67;;;;;18.43;72.66;100889.13;5081876;27;45344;-80
2021/06/29 08:13:01;;;;;;;;;6.00;5.00;;;;;18.44;72.41;100889.94;5069592;27;45357;-81
2021/06/29 08:15:27;;;;;;;;;5.00;5.00;;;;;18.44;72.47;100881.88;5059035;28;47268;-81
2021/06/29 08:17:53;;;;;;;;;4.67;4.67;;;;;18.44;73.46;100882.72;5059155;28;47353;-81
2021/06/29 08:20:20;;;;;;;;;7.67;5.67;;;;;18.40;72.97;100881.50;5060184;28;45190;-83
2021/06/29 08:22:47;;;;;;;;;6.67;5.00;;;;;18.39;72.59;100879.84;5060183;28;45245;-82
2021/06/29 08:25:13;;;;;;;;;7.00;6.00;;;;;18.40;73.53;100886.88;5075503;27;47293;-82
2021/06/29 08:27:39;;;;;;;;;4.67;4.67;;;;;18.38;73.37;100883.59;5060089;28;45334;-82
2021/06/29 08:30:10;;;;;;;;;5.33;5.00;;;;;18.41;73.33;100889.34;5073204;27;45310;-82
2021/06/29 08:32:38;;;;;;;;;6.67;5.33;;;;;18.33;72.66;100873.50;5100826;27;45296;-82
2021/06/29 08:35:06;;;;;;;;;5.00;5.00;;;;;18.40;73.35;100895.78;5100737;27;45967;-82
2021/06/29 08:37:31;;;;;;;;;5.33;5.33;;;;;18.39;73.02;100893.31;5059548;28;46392;-83
2021/06/29 08:39:57;;;;;;;;;5.33;5.33;;;;;18.39;72.93;100896.81;5078858;28;45318;-81
2021/06/29 08:42:22;;;;;;;;;5.00;5.00;;;;;18.36;73.58;100891.88;5080196;27;45409;-80
2021/06/29 08:44:48;;;;;;;;;9.00;9.00;;;;;18.36;73.46;100896.44;5080326;27;45673;-77
2021/06/29 08:47:14;;;;;;;;;8.00;8.00;;;;;18.36;73.73;100891.88;5080139;27;45306;-77
2021/06/29 08:49:39;;;;;;;;;10.33;8.33;;;;;18.37;73.81;100893.53;5078884;28;45230;-77
2021/06/29 08:52:06;;;;;;;;;7.33;7.00;;;;;18.44;73.24;100893.47;5079764;27;45224;-77
2021/06/29 08:54:32;;;;;;;;;9.67;9.00;;;;;18.46;73.53;100891.34;5080028;27;45471;-77
2021/06/29 08:56:58;;;;;;;;;8.67;8.67;;;;;18.48;73.04;100900.03;5080209;27;45275;-77
2021/06/29 08:59:24;;;;;;;;;8.33;7.00;;;;;18.43;73.52;100886.44;5078119;28;45298;-75
2021/06/29 09:01:49;;;;;;;;;11.00;10.67;;;;;18.49;73.69;100890.91;5081508;27;45222;-75
2021/06/29 09:04:15;;;;;;;;;9.00;9.00;;;;;18.57;72.37;100902.44;5080865;27;45567;-76
2021/06/29 09:06:43;;;;;;;;;8.67;8.67;;;;;18.59;73.39;100898.50;5075335;27;45321;-76
2021/06/29 09:09:28;;;;;;;;;7.00;7.00;;;;;18.65;72.85;100891.38;5070514;27;45448;-75
2021/06/29 09:11:55;;;;;;;;;8.00;7.67;;;;;18.69;72.61;100889.88;5074534;28;45429;-76
2021/06/29 09:14:27;;;;;;;;;10.00;10.00;;;;;18.66;72.56;100891.16;5077284;27;45251;-78
2021/06/29 09:16:53;;;;;;;;;11.67;11.00;;;;;18.68;72.29;100893.63;5067900;28;45570;-75
2021/06/29 09:19:35;;;;;;;;;9.00;9.00;;;;;18.66;72.63;100893.00;5068940;27;45563;-81
2021/06/29 09:22:25;;;;;;;;;10.33;10.00;;;;;18.64;72.91;100892.41;5069838;28;45376;-80
2021/06/29 09:24:50;;;;;;;;;12.00;11.00;;;;;18.64;72.99;100895.09;5070194;28;45404;-80
2021/06/29 09:27:42;;;;;;;;;10.33;7.33;;;;;18.61;72.97;100907.13;5095268;27;47162;-81
2021/06/29 09:30:31;;;;;;;;;8.00;6.67;;;;;18.57;72.52;100897.03;5086531;27;45324;-78
2021/06/29 09:33:07;;;;;;;;;6.00;6.00;;;;;18.58;73.64;100896.00;5097042;27;45222;-78
2021/06/29 09:35:34;;;;;;;;;4.33;4.00;;;;;18.57;72.75;100895.19;5100033;27;45600;-78
2021/06/29 09:38:00;;;;;;;;;6.00;6.00;;;;;18.63;72.90;100899.69;5087876;27;45465;-77
2021/06/29 09:40:28;;;;;;;;;4.00;4.00;;;;;18.66;72.52;100893.00;5082033;27;45479;-77
2021/06/29 09:43:10;;;;;;;;;6.00;4.00;;;;;18.67;71.78;100892.78;5059408;28;45277;-77
2021/06/29 09:45:40;;;;;;;;;3.00;3.00;;;;;18.73;72.47;100893.75;5059267;28;45270;-77
2021/06/29 09:48:10;;;;;;;;;4.00;4.00;;;;;18.84;72.04;100889.50;5062167;28;47530;-77
2021/06/29 09:50:52;;;;;;;;;4.33;4.33;;;;;18.91;70.58;100887.53;5059702;28;45349;-77
2021/06/29 09:53:50;;;;;;;;;4.33;4.33;;;;;18.96;67.21;100888.72;5059586;28;45232;-77
2021/06/29 09:56:51;;;;;;;;;;;;;;;;;;;;;
2021/06/29 09:59:43;;;;;;;;;4.00;4.00;;;;;18.97;71.57;100891.19;5062211;28;76635;-78
2021/06/29 10:02:12;;;;;;;;;4.00;4.00;;;;;18.92;71.02;100869.50;5078505;28;45326;-77
2021/06/29 10:04:38;;;;;;;;;4.67;4.67;;;;;19.08;71.37;100888.78;5062550;28;45238;-77
2021/06/29 10:07:16;;;;;;;;;4.67;4.67;;;;;19.13;70.67;100883.56;5062017;28;45404;-77
2021/06/29 10:09:41;;;;;;;;;5.00;5.00;;;;;19.20;71.04;100891.53;5062360;28;46924;-78
2021/06/29 10:12:07;;;;;;;;;5.00;5.00;;;;;19.25;69.28;100886.31;5062992;28;45303;-80
2021/06/29 10:14:34;;;;;;;;;7.00;7.00;;;;;19.24;70.42;100880.06;5061163;28;45339;-79
2021/06/29 10:17:00;;;;;;;;;6.00;6.00;;;;;19.28;69.48;100883.16;5078235;28;48056;-78
2021/06/29 10:22:11;;;;;;;;;4.33;4.33;;;;;19.08;69.34;100869.94;5062616;28;45288;-82
2021/06/29 10:24:38;;;;;;;;;4.67;4.67;;;;;19.11;70.07;100877.56;5063794;28;45243;-80
2021/06/29 10:27:08;;;;;;;;;5.00;5.00;;;;;19.01;70.80;100875.41;5068973;28;46072;-79
2021/06/29 10:29:35;;;;;;;;;4.67;4.67;;;;;18.90;70.70;100880.50;5083068;27;47627;-79
2021/06/29 10:32:11;;;;;;;;;4.67;4.67;;;;;18.83;70.87;100876.25;5101403;27;45548;-79
2021/06/29 10:34:39;;;;;;;;;4.00;4.00;;;;;18.74;70.70;100876.53;5103684;27;45243;-78
2021/06/29 10:37:06;;;;;;;;;5.00;5.00;;;;;18.69;71.32;100879.09;5101438;27;45479;-78
2021/06/29 10:39:33;;;;;;;;;4.00;4.00;;;;;18.66;70.96;100869.63;5102407;27;47310;-78
2021/06/29 10:42:14;;;;;;;;;4.67;4.67;;;;;18.66;72.00;100866.09;5102576;27;45204;-78
2021/06/29 10:44:42;;;;;;;;;5.00;4.00;;;;;18.62;72.01;100863.03;5100490;27;45619;-79
2021/06/29 10:47:25;;;;;;;;;8.00;6.00;;;;;18.69;70.70;100868.34;5101437;27;46127;-78
2021/06/29 10:49:53;;;;;;;;;3.67;3.67;;;;;18.72;70.70;100870.59;5101589;27;48449;-79
2021/06/29 10:52:27;;;;;;;;;4.33;4.33;;;;;18.72;71.89;100883.22;5100634;27;45649;-78
2021/06/29 10:55:08;;;;;;;;;5.00;4.33;;;;;18.68;72.30;100878.28;5083584;27;45263;-80
2021/06/29 10:57:43;;;;;;;;;4.33;4.33;;;;;18.60;72.45;100867.81;5063661;28;45509;-78
2021/06/29 11:00:34;;;;;;;;;3.33;2.67;;;;;18.64;72.88;100882.47;5065460;27;45416;-78
2021/06/29 11:03:08;;;;;;;;;5.00;5.00;;;;;18.62;72.91;100871.09;5061511;28;45268;-77
2021/06/29 11:05:38;;;;;;;;;4.00;4.00;;;;;18.68;72.80;100877.47;5060027;28;45355;-79
2021/06/29 11:08:17;;;;;;;;;3.33;3.33;;;;;18.72;72.79;100878.66;5060205;28;45224;-76
2021/06/29 11:10:47;;;;;;;;;4.67;4.67;;;;;18.79;72.47;100865.09;5073784;28;46188;-77
2021/06/29 11:13:13;;;;;;;;;5.00;5.00;;;;;18.98;70.45;100881.25;5081628;27;45143;-77
2021/06/29 11:15:54;;;;;;;;;7.00;5.67;;;;;19.12;70.98;100881.91;5096924;27;45278;-77
2021/06/29 11:18:21;;;;;;;;;5.33;5.33;;;;;19.29;71.93;100869.44;5062202;28;45346;-77
2021/06/29 11:20:49;;;;;;;;;5.67;5.67;;;;;19.48;69.64;100871.25;5060899;28;45303;-77
2021/06/29 11:23:15;;;;;;;;;5.00;4.00;;;;;19.65;69.97;100879.47;5076260;28;45371;-77
2021/06/29 11:25:42;;;;;;;;;7.67;7.67;;;;;19.71;69.84;100875.84;5061241;28;45430;-76
2021/06/29 11:28:15;;;;;;;;;6.00;5.00;;;;;19.79;71.38;100878.19;5059618;28;46443;-76
2021/06/29 11:31:01;;;;;;;;;6.00;5.33;;;;;19.90;71.18;100876.56;5084015;27;46159;-76